Platzwetter & Webcam am Flugplatz Wels

Flugwetter Linz LOWL

[Quelle: ADDS]
METAR
LOWL 190250Z AUTO 25009KT 8000 -RA FEW013 SCT016 BKN020 02/01 Q1005 =
TAF
LOWL 182315Z 1900/1924 26010KT 9999 -SHRA BKN035 TEMPO 1900/1907 27017G30KT 4000 SHRA SCT012 BKN020 BECMG 1909/1911 NSW SCT040 TEMPO 1911/1916 27017G27KT BECMG 1918/1920 24003KT CAVOK =

Flugwetter Salzburg LOWS

[Quelle: ADDS]
METAR
LOWS 190250Z AUTO 14006KT 6000 -RASN FEW003 SCT010 BKN013 00/00 Q1006 =
TAF
LOWS 182315Z 1900/1924 29013KT 9999 FEW010 SCT025 BKN040 TX05/1900Z TNM01/1924Z TEMPO 1900/1909 3000 SHRA SCT010 BKN013 TEMPO 1903/1908 17005KT TEMPO 1909/1915 27015G25KT 3000 SHRASN SCT005 BKN009 PROB30 TEMPO 1909/1913 27020G30KT 1200 TSSG BKN006 FEW030CB BECMG 1915/1918 21005KT FEW050 SCT090 TEMPO 1923/1924 27015G25KT 0800 SHSN BKN004 FEW030TCU =

Webcam - letzten 24 Stunden

  • 0
  • 1
  • 2
  • 3
  • 4
  • 5
  • 6
  • 7
  • 8
  • 9
  • 10
  • 11
  • 12
  • 13
  • 14
  • 15
  • 16
  • 17
  • 18
  • 19
  • 20
  • 21
  • 22
  • 23

    Wind - Verlauf

    Windrichtung - Verlauf

    Temperatur - Verlauf

    Relative Luftfeuchtigkeit - Verlauf

    Luftdruck - Verlauf


    JU 52 Nostalgie-Rundflüge - hier am Flugplatz Wels!

    Tickets, Termine und Infos, hier am Flugplatz Wels. Tickethotline +43 7242 26499 0

    Pilot für einen Tag - Erfülle Dir den Traum vom Fliegen!

    Werde einen Tag lang Pilot bei und mit dem Fliegerclub Weiße Möwe in Wels!

    Stadt - Wels

    Ausflugsziele & Sehenswürdigkeiten
    in Wels und Umgebung